RJCT(METAR)
04/24 09:00
METAR RJCT 240000Z VRB02KT 9999 FEW230 11/03 Q1014 RMK 1CI230 A2994=
戻る
トップページへ戻る
IMOC Co,.Ltd.